sensor_id;sensor_type;location;lat;lon;timestamp;temperature;humidity
17370;DHT22;8802;52.402;4.920;2022-11-03T00:00:07;15.10;90.00
17370;DHT22;8802;52.402;4.920;2022-11-03T00:02:35;15.20;90.10
17370;DHT22;8802;52.402;4.920;2022-11-03T00:05:03;15.30;90.20
17370;DHT22;8802;52.402;4.920;2022-11-03T00:07:50;15.20;90.20
17370;DHT22;8802;52.402;4.920;2022-11-03T00:10:17;15.20;90.20
17370;DHT22;8802;52.402;4.920;2022-11-03T00:12:44;15.20;90.20
17370;DHT22;8802;52.402;4.920;2022-11-03T00:15:11;15.10;90.20
17370;DHT22;8802;52.402;4.920;2022-11-03T00:17:39;15.20;90.20
17370;DHT22;8802;52.402;4.920;2022-11-03T00:20:07;15.20;90.30
17370;DHT22;8802;52.402;4.920;2022-11-03T00:22:34;15.20;90.40
17370;DHT22;8802;52.402;4.920;2022-11-03T00:25:01;15.10;90.40
17370;DHT22;8802;52.402;4.920;2022-11-03T00:27:27;15.10;90.30
17370;DHT22;8802;52.402;4.920;2022-11-03T00:29:54;15.20;90.40
17370;DHT22;8802;52.402;4.920;2022-11-03T00:32:21;15.10;90.30
17370;DHT22;8802;52.402;4.920;2022-11-03T00:34:49;15.10;90.30
17370;DHT22;8802;52.402;4.920;2022-11-03T00:37:16;15.10;90.70
17370;DHT22;8802;52.402;4.920;2022-11-03T00:39:43;15.20;90.40
17370;DHT22;8802;52.402;4.920;2022-11-03T00:42:10;15.10;90.40
17370;DHT22;8802;52.402;4.920;2022-11-03T00:44:36;15.10;90.40
17370;DHT22;8802;52.402;4.920;2022-11-03T00:47:03;15.10;90.40
17370;DHT22;8802;52.402;4.920;2022-11-03T00:49:30;15.10;90.40
17370;DHT22;8802;52.402;4.920;2022-11-03T00:51:58;15.10;90.40
17370;DHT22;8802;52.402;4.920;2022-11-03T00:54:25;15.10;90.40
17370;DHT22;8802;52.402;4.920;2022-11-03T00:56:52;15.10;90.40
17370;DHT22;8802;52.402;4.920;2022-11-03T00:59:19;15.10;90.40
17370;DHT22;8802;52.402;4.920;2022-11-03T01:01:45;15.10;90.40
17370;DHT22;8802;52.402;4.920;2022-11-03T01:04:13;15.10;90.40
17370;DHT22;8802;52.402;4.920;2022-11-03T01:07:00;15.10;90.60
17370;DHT22;8802;52.402;4.920;2022-11-03T01:09:28;15.10;90.50
17370;DHT22;8802;52.402;4.920;2022-11-03T01:11:58;15.10;90.60
17370;DHT22;8802;52.402;4.920;2022-11-03T01:14:27;15.10;90.60
17370;DHT22;8802;52.402;4.920;2022-11-03T01:16:54;15.10;90.60
17370;DHT22;8802;52.402;4.920;2022-11-03T01:19:21;15.10;90.50
17370;DHT22;8802;52.402;4.920;2022-11-03T01:21:49;15.10;90.60
17370;DHT22;8802;52.402;4.920;2022-11-03T01:24:19;15.00;90.50
17370;DHT22;8802;52.402;4.920;2022-11-03T01:26:46;15.00;90.50
17370;DHT22;8802;52.402;4.920;2022-11-03T01:29:13;15.10;90.60
17370;DHT22;8802;52.402;4.920;2022-11-03T01:31:40;15.10;90.60
17370;DHT22;8802;52.402;4.920;2022-11-03T01:34:11;15.10;90.60
17370;DHT22;8802;52.402;4.920;2022-11-03T01:36:39;15.00;90.50
17370;DHT22;8802;52.402;4.920;2022-11-03T01:39:06;15.10;90.50
17370;DHT22;8802;52.402;4.920;2022-11-03T01:41:34;15.00;90.60
17370;DHT22;8802;52.402;4.920;2022-11-03T01:44:33;15.00;90.60
17370;DHT22;8802;52.402;4.920;2022-11-03T01:47:05;15.00;90.60
17370;DHT22;8802;52.402;4.920;2022-11-03T01:49:38;15.00;90.50
17370;DHT22;8802;52.402;4.920;2022-11-03T01:52:10;15.00;90.50
17370;DHT22;8802;52.402;4.920;2022-11-03T01:54:42;15.10;90.50
17370;DHT22;8802;52.402;4.920;2022-11-03T01:57:16;15.00;90.50
17370;DHT22;8802;52.402;4.920;2022-11-03T01:59:46;15.00;90.60
17370;DHT22;8802;52.402;4.920;2022-11-03T02:02:13;15.00;90.60
17370;DHT22;8802;52.402;4.920;2022-11-03T02:04:41;15.00;90.60
17370;DHT22;8802;52.402;4.920;2022-11-03T02:07:13;15.00;90.60
17370;DHT22;8802;52.402;4.920;2022-11-03T02:09:41;14.90;90.60
17370;DHT22;8802;52.402;4.920;2022-11-03T02:12:10;15.00;90.70
17370;DHT22;8802;52.402;4.920;2022-11-03T02:14:41;14.90;90.70
17370;DHT22;8802;52.402;4.920;2022-11-03T02:17:10;15.00;90.80
17370;DHT22;8802;52.402;4.920;2022-11-03T02:19:41;14.90;90.80
17370;DHT22;8802;52.402;4.920;2022-11-03T02:25:13;14.90;90.70
17370;DHT22;8802;52.402;4.920;2022-11-03T02:27:43;14.90;90.70
17370;DHT22;8802;52.402;4.920;2022-11-03T02:30:10;14.90;90.80
17370;DHT22;8802;52.402;4.920;2022-11-03T02:32:41;14.90;90.80
17370;DHT22;8802;52.402;4.920;2022-11-03T02:35:19;14.90;90.80
17370;DHT22;8802;52.402;4.920;2022-11-03T02:37:50;15.00;90.90
17370;DHT22;8802;52.402;4.920;2022-11-03T02:40:24;14.90;90.80
17370;DHT22;8802;52.402;4.920;2022-11-03T02:42:55;15.00;90.90
17370;DHT22;8802;52.402;4.920;2022-11-03T02:45:24;15.00;90.90
17370;DHT22;8802;52.402;4.920;2022-11-03T02:47:54;15.00;90.90
17370;DHT22;8802;52.402;4.920;2022-11-03T02:50:26;15.00;91.00
17370;DHT22;8802;52.402;4.920;2022-11-03T02:52:54;15.00;91.00
17370;DHT22;8802;52.402;4.920;2022-11-03T02:55:27;15.00;91.00
17370;DHT22;8802;52.402;4.920;2022-11-03T02:58:01;15.00;91.00
17370;DHT22;8802;52.402;4.920;2022-11-03T03:00:35;15.00;91.00
17370;DHT22;8802;52.402;4.920;2022-11-03T03:03:07;15.00;91.00
17370;DHT22;8802;52.402;4.920;2022-11-03T03:05:35;15.10;91.00
17370;DHT22;8802;52.402;4.920;2022-11-03T03:08:04;15.00;91.00
17370;DHT22;8802;52.402;4.920;2022-11-03T03:10:36;15.00;91.00
17370;DHT22;8802;52.402;4.920;2022-11-03T03:13:06;15.00;91.00
17370;DHT22;8802;52.402;4.920;2022-11-03T03:15:41;15.00;91.10
17370;DHT22;8802;52.402;4.920;2022-11-03T03:18:17;15.00;91.00
17370;DHT22;8802;52.402;4.920;2022-11-03T03:20:50;15.00;91.10
17370;DHT22;8802;52.402;4.920;2022-11-03T03:23:20;15.10;91.20
17370;DHT22;8802;52.402;4.920;2022-11-03T03:25:49;15.00;91.20
17370;DHT22;8802;52.402;4.920;2022-11-03T03:28:22;15.10;91.20
17370;DHT22;8802;52.402;4.920;2022-11-03T03:30:51;15.10;91.20
17370;DHT22;8802;52.402;4.920;2022-11-03T03:33:20;15.10;91.30
17370;DHT22;8802;52.402;4.920;2022-11-03T03:35:49;15.10;91.20
17370;DHT22;8802;52.402;4.920;2022-11-03T03:38:19;15.00;91.30
17370;DHT22;8802;52.402;4.920;2022-11-03T03:40:50;15.00;91.20
17370;DHT22;8802;52.402;4.920;2022-11-03T03:43:20;15.10;91.40
17370;DHT22;8802;52.402;4.920;2022-11-03T03:45:50;15.10;91.30
17370;DHT22;8802;52.402;4.920;2022-11-03T03:48:18;15.00;91.30
17370;DHT22;8802;52.402;4.920;2022-11-03T03:50:46;15.10;91.40
17370;DHT22;8802;52.402;4.920;2022-11-03T03:53:15;15.10;91.40
17370;DHT22;8802;52.402;4.920;2022-11-03T03:55:45;15.10;91.50
17370;DHT22;8802;52.402;4.920;2022-11-03T03:58:14;15.00;91.50
17370;DHT22;8802;52.402;4.920;2022-11-03T04:00:42;15.00;91.50
17370;DHT22;8802;52.402;4.920;2022-11-03T04:03:14;15.00;91.60
17370;DHT22;8802;52.402;4.920;2022-11-03T04:05:42;15.10;91.60
17370;DHT22;8802;52.402;4.920;2022-11-03T04:08:09;15.10;91.70
17370;DHT22;8802;52.402;4.920;2022-11-03T04:10:36;15.10;91.70
17370;DHT22;8802;52.402;4.920;2022-11-03T04:13:03;15.00;91.70
17370;DHT22;8802;52.402;4.920;2022-11-03T04:15:49;15.00;91.70
17370;DHT22;8802;52.402;4.920;2022-11-03T04:18:33;15.00;91.70
17370;DHT22;8802;52.402;4.920;2022-11-03T04:21:17;15.10;91.80
17370;DHT22;8802;52.402;4.920;2022-11-03T04:24:13;15.10;91.80
17370;DHT22;8802;52.402;4.920;2022-11-03T04:26:39;15.10;91.90
17370;DHT22;8802;52.402;4.920;2022-11-03T04:29:09;15.00;91.90
17370;DHT22;8802;52.402;4.920;2022-11-03T04:31:37;15.10;91.90
17370;DHT22;8802;52.402;4.920;2022-11-03T04:34:09;15.10;92.00
17370;DHT22;8802;52.402;4.920;2022-11-03T04:36:37;15.10;92.00
17370;DHT22;8802;52.402;4.920;2022-11-03T04:39:14;15.10;92.10
17370;DHT22;8802;52.402;4.920;2022-11-03T04:41:42;15.10;92.10
17370;DHT22;8802;52.402;4.920;2022-11-03T04:44:13;15.10;92.10
17370;DHT22;8802;52.402;4.920;2022-11-03T04:46:42;15.10;92.10
17370;DHT22;8802;52.402;4.920;2022-11-03T04:49:13;15.10;92.10
17370;DHT22;8802;52.402;4.920;2022-11-03T04:51:42;15.10;92.10
17370;DHT22;8802;52.402;4.920;2022-11-03T04:54:12;15.10;92.10
17370;DHT22;8802;52.402;4.920;2022-11-03T04:56:40;15.10;92.20
17370;DHT22;8802;52.402;4.920;2022-11-03T04:59:10;15.10;92.20
17370;DHT22;8802;52.402;4.920;2022-11-03T05:01:37;15.20;92.30
17370;DHT22;8802;52.402;4.920;2022-11-03T05:04:11;15.10;92.20
17370;DHT22;8802;52.402;4.920;2022-11-03T05:06:39;15.10;92.30
17370;DHT22;8802;52.402;4.920;2022-11-03T05:09:11;15.20;92.30
17370;DHT22;8802;52.402;4.920;2022-11-03T05:11:43;15.20;92.30
17370;DHT22;8802;52.402;4.920;2022-11-03T05:14:14;15.30;92.40
17370;DHT22;8802;52.402;4.920;2022-11-03T05:16:42;15.10;92.70
17370;DHT22;8802;52.402;4.920;2022-11-03T05:19:14;15.10;92.30
17370;DHT22;8802;52.402;4.920;2022-11-03T05:21:44;15.20;92.40
17370;DHT22;8802;52.402;4.920;2022-11-03T05:24:13;15.20;92.40
17370;DHT22;8802;52.402;4.920;2022-11-03T05:26:40;15.20;92.40
17370;DHT22;8802;52.402;4.920;2022-11-03T05:29:13;15.20;92.90
17370;DHT22;8802;52.402;4.920;2022-11-03T05:31:41;15.20;92.50
17370;DHT22;8802;52.402;4.920;2022-11-03T05:34:27;15.20;92.50
17370;DHT22;8802;52.402;4.920;2022-11-03T05:36:57;15.20;92.60
17370;DHT22;8802;52.402;4.920;2022-11-03T05:39:29;15.20;92.60
17370;DHT22;8802;52.402;4.920;2022-11-03T05:41:57;15.20;92.60
17370;DHT22;8802;52.402;4.920;2022-11-03T05:44:29;15.20;92.60
17370;DHT22;8802;52.402;4.920;2022-11-03T05:46:57;15.20;92.60
17370;DHT22;8802;52.402;4.920;2022-11-03T05:49:26;15.20;92.70
17370;DHT22;8802;52.402;4.920;2022-11-03T05:51:53;15.20;92.70
17370;DHT22;8802;52.402;4.920;2022-11-03T05:54:22;15.20;92.70
17370;DHT22;8802;52.402;4.920;2022-11-03T05:56:49;15.20;92.80
17370;DHT22;8802;52.402;4.920;2022-11-03T05:59:25;15.20;92.80
17370;DHT22;8802;52.402;4.920;2022-11-03T06:01:53;15.20;92.80
17370;DHT22;8802;52.402;4.920;2022-11-03T06:04:27;15.20;92.80
17370;DHT22;8802;52.402;4.920;2022-11-03T06:07:00;15.20;92.80
17370;DHT22;8802;52.402;4.920;2022-11-03T06:09:28;15.20;92.80
17370;DHT22;8802;52.402;4.920;2022-11-03T06:12:00;15.20;92.80
17370;DHT22;8802;52.402;4.920;2022-11-03T06:14:30;15.20;92.80
17370;DHT22;8802;52.402;4.920;2022-11-03T06:16:58;15.30;92.90
17370;DHT22;8802;52.402;4.920;2022-11-03T06:19:28;15.30;92.90
17370;DHT22;8802;52.402;4.920;2022-11-03T06:21:58;15.30;92.90
17370;DHT22;8802;52.402;4.920;2022-11-03T06:24:30;15.30;92.90
17370;DHT22;8802;52.402;4.920;2022-11-03T06:26:57;15.30;92.90
17370;DHT22;8802;52.402;4.920;2022-11-03T06:29:25;15.30;92.90
17370;DHT22;8802;52.402;4.920;2022-11-03T06:31:54;15.30;93.00
17370;DHT22;8802;52.402;4.920;2022-11-03T06:34:36;15.30;93.00
17370;DHT22;8802;52.402;4.920;2022-11-03T06:37:14;15.30;93.00
17370;DHT22;8802;52.402;4.920;2022-11-03T06:39:41;15.30;93.00
17370;DHT22;8802;52.402;4.920;2022-11-03T06:42:11;15.30;93.10
17370;DHT22;8802;52.402;4.920;2022-11-03T06:44:39;15.30;93.10
17370;DHT22;8802;52.402;4.920;2022-11-03T06:47:19;15.30;93.40
17370;DHT22;8802;52.402;4.920;2022-11-03T06:49:49;15.40;93.10
17370;DHT22;8802;52.402;4.920;2022-11-03T06:52:27;15.40;93.10
17370;DHT22;8802;52.402;4.920;2022-11-03T06:55:13;15.40;93.20
17370;DHT22;8802;52.402;4.920;2022-11-03T06:57:46;15.40;93.20
17370;DHT22;8802;52.402;4.920;2022-11-03T07:00:18;15.40;93.10
17370;DHT22;8802;52.402;4.920;2022-11-03T07:02:54;15.40;93.20
17370;DHT22;8802;52.402;4.920;2022-11-03T07:05:25;15.40;93.20
17370;DHT22;8802;52.402;4.920;2022-11-03T07:07:55;15.40;93.20
17370;DHT22;8802;52.402;4.920;2022-11-03T07:10:24;15.40;93.20
17370;DHT22;8802;52.402;4.920;2022-11-03T07:12:51;15.40;93.30
17370;DHT22;8802;52.402;4.920;2022-11-03T07:15:23;15.50;93.30
17370;DHT22;8802;52.402;4.920;2022-11-03T07:17:51;15.40;93.30
17370;DHT22;8802;52.402;4.920;2022-11-03T07:20:19;15.50;93.30
17370;DHT22;8802;52.402;4.920;2022-11-03T07:22:48;15.50;93.30
17370;DHT22;8802;52.402;4.920;2022-11-03T07:25:18;15.50;93.30
17370;DHT22;8802;52.402;4.920;2022-11-03T07:27:48;15.50;93.30
17370;DHT22;8802;52.402;4.920;2022-11-03T07:30:19;15.50;93.40
17370;DHT22;8802;52.402;4.920;2022-11-03T07:32:47;15.50;93.30
17370;DHT22;8802;52.402;4.920;2022-11-03T07:35:29;15.50;93.30
17370;DHT22;8802;52.402;4.920;2022-11-03T07:38:01;15.50;93.40
17370;DHT22;8802;52.402;4.920;2022-11-03T07:40:31;15.60;93.40
17370;DHT22;8802;52.402;4.920;2022-11-03T07:43:07;15.60;93.40
17370;DHT22;8802;52.402;4.920;2022-11-03T07:45:38;15.60;93.40
17370;DHT22;8802;52.402;4.920;2022-11-03T07:48:18;15.60;93.40
17370;DHT22;8802;52.402;4.920;2022-11-03T07:50:45;15.60;93.60
17370;DHT22;8802;52.402;4.920;2022-11-03T07:53:19;15.60;93.50
17370;DHT22;8802;52.402;4.920;2022-11-03T07:55:47;15.60;93.40
17370;DHT22;8802;52.402;4.920;2022-11-03T07:58:21;15.70;93.40
17370;DHT22;8802;52.402;4.920;2022-11-03T08:00:49;15.70;93.40
17370;DHT22;8802;52.402;4.920;2022-11-03T08:03:26;15.70;93.40
17370;DHT22;8802;52.402;4.920;2022-11-03T08:05:53;15.70;93.40
17370;DHT22;8802;52.402;4.920;2022-11-03T08:08:21;15.70;93.40
17370;DHT22;8802;52.402;4.920;2022-11-03T08:10:48;15.70;93.40
17370;DHT22;8802;52.402;4.920;2022-11-03T08:13:15;15.70;93.40
17370;DHT22;8802;52.402;4.920;2022-11-03T08:15:43;15.80;93.50
17370;DHT22;8802;52.402;4.920;2022-11-03T08:18:10;15.80;93.50
17370;DHT22;8802;52.402;4.920;2022-11-03T08:20:36;15.80;93.50
17370;DHT22;8802;52.402;4.920;2022-11-03T08:23:03;15.80;93.50
17370;DHT22;8802;52.402;4.920;2022-11-03T08:25:31;15.90;93.50
17370;DHT22;8802;52.402;4.920;2022-11-03T08:27:58;15.90;93.50
17370;DHT22;8802;52.402;4.920;2022-11-03T08:30:26;15.90;93.50
17370;DHT22;8802;52.402;4.920;2022-11-03T08:32:53;15.90;93.50
17370;DHT22;8802;52.402;4.920;2022-11-03T08:35:20;15.90;93.50
17370;DHT22;8802;52.402;4.920;2022-11-03T08:37:46;16.00;93.60
17370;DHT22;8802;52.402;4.920;2022-11-03T08:40:13;16.00;93.60
17370;DHT22;8802;52.402;4.920;2022-11-03T08:42:41;16.00;93.50
17370;DHT22;8802;52.402;4.920;2022-11-03T08:45:09;16.00;93.50
17370;DHT22;8802;52.402;4.920;2022-11-03T08:47:37;16.00;93.50
17370;DHT22;8802;52.402;4.920;2022-11-03T08:50:05;16.10;93.60
17370;DHT22;8802;52.402;4.920;2022-11-03T08:52:32;16.10;93.50
17370;DHT22;8802;52.402;4.920;2022-11-03T08:54:59;16.10;93.50
17370;DHT22;8802;52.402;4.920;2022-11-03T08:57:25;16.10;93.50
17370;DHT22;8802;52.402;4.920;2022-11-03T08:59:54;16.10;93.40
17370;DHT22;8802;52.402;4.920;2022-11-03T09:02:23;16.20;93.40
17370;DHT22;8802;52.402;4.920;2022-11-03T09:04:50;16.20;93.40
17370;DHT22;8802;52.402;4.920;2022-11-03T09:07:17;16.20;93.40
17370;DHT22;8802;52.402;4.920;2022-11-03T09:09:44;16.20;93.40
17370;DHT22;8802;52.402;4.920;2022-11-03T09:12:11;16.20;93.40
17370;DHT22;8802;52.402;4.920;2022-11-03T09:14:37;16.30;93.40
17370;DHT22;8802;52.402;4.920;2022-11-03T09:17:06;16.30;93.40
17370;DHT22;8802;52.402;4.920;2022-11-03T09:19:32;16.30;93.30
17370;DHT22;8802;52.402;4.920;2022-11-03T09:21:59;16.30;93.30
17370;DHT22;8802;52.402;4.920;2022-11-03T09:24:26;16.30;93.30
17370;DHT22;8802;52.402;4.920;2022-11-03T09:26:53;16.40;93.40
17370;DHT22;8802;52.402;4.920;2022-11-03T09:29:20;16.40;93.30
17370;DHT22;8802;52.402;4.920;2022-11-03T09:31:47;16.40;93.20
17370;DHT22;8802;52.402;4.920;2022-11-03T09:34:15;16.50;93.20
17370;DHT22;8802;52.402;4.920;2022-11-03T09:36:42;16.50;93.20
17370;DHT22;8802;52.402;4.920;2022-11-03T09:39:09;16.50;93.20
17370;DHT22;8802;52.402;4.920;2022-11-03T09:41:36;16.60;93.20
17370;DHT22;8802;52.402;4.920;2022-11-03T09:44:03;16.60;93.10
17370;DHT22;8802;52.402;4.920;2022-11-03T09:46:30;16.60;93.00
17370;DHT22;8802;52.402;4.920;2022-11-03T09:48:57;16.70;93.00
17370;DHT22;8802;52.402;4.920;2022-11-03T09:51:26;16.70;92.90
17370;DHT22;8802;52.402;4.920;2022-11-03T09:53:55;16.70;92.80
17370;DHT22;8802;52.402;4.920;2022-11-03T09:56:24;16.80;92.90
17370;DHT22;8802;52.402;4.920;2022-11-03T09:58:51;16.80;92.80
17370;DHT22;8802;52.402;4.920;2022-11-03T10:01:18;16.90;92.70
17370;DHT22;8802;52.402;4.920;2022-11-03T10:03:45;16.90;92.70
17370;DHT22;8802;52.402;4.920;2022-11-03T10:06:12;16.90;92.60
17370;DHT22;8802;52.402;4.920;2022-11-03T10:08:42;16.90;92.50
17370;DHT22;8802;52.402;4.920;2022-11-03T10:11:10;17.00;92.50
17370;DHT22;8802;52.402;4.920;2022-11-03T10:13:40;17.00;92.40
17370;DHT22;8802;52.402;4.920;2022-11-03T10:16:10;17.10;92.20
17370;DHT22;8802;52.402;4.920;2022-11-03T10:18:38;17.10;92.10
17370;DHT22;8802;52.402;4.920;2022-11-03T10:21:10;17.10;92.10
17370;DHT22;8802;52.402;4.920;2022-11-03T10:23:38;17.10;91.90
17370;DHT22;8802;52.402;4.920;2022-11-03T10:26:09;17.20;92.00
17370;DHT22;8802;52.402;4.920;2022-11-03T10:28:37;17.20;91.80
17370;DHT22;8802;52.402;4.920;2022-11-03T10:31:06;17.30;91.70
17370;DHT22;8802;52.402;4.920;2022-11-03T10:33:50;17.30;91.70
17370;DHT22;8802;52.402;4.920;2022-11-03T10:36:24;17.40;91.70
17370;DHT22;8802;52.402;4.920;2022-11-03T10:38:52;17.40;91.50
17370;DHT22;8802;52.402;4.920;2022-11-03T10:41:21;17.50;91.60
17370;DHT22;8802;52.402;4.920;2022-11-03T10:44:15;17.40;91.40
17370;DHT22;8802;52.402;4.920;2022-11-03T10:46:55;17.50;91.30
17370;DHT22;8802;52.402;4.920;2022-11-03T10:49:22;17.60;91.30
17370;DHT22;8802;52.402;4.920;2022-11-03T10:51:52;17.50;91.20
17370;DHT22;8802;52.402;4.920;2022-11-03T10:54:21;17.60;91.20
17370;DHT22;8802;52.402;4.920;2022-11-03T10:56:50;17.60;91.20
17370;DHT22;8802;52.402;4.920;2022-11-03T10:59:18;17.60;91.10
17370;DHT22;8802;52.402;4.920;2022-11-03T11:01:46;17.60;91.10
17370;DHT22;8802;52.402;4.920;2022-11-03T11:04:14;17.60;91.00
17370;DHT22;8802;52.402;4.920;2022-11-03T11:06:42;17.60;90.90
17370;DHT22;8802;52.402;4.920;2022-11-03T11:09:12;17.60;90.80
17370;DHT22;8802;52.402;4.920;2022-11-03T11:11:59;17.60;90.80
17370;DHT22;8802;52.402;4.920;2022-11-03T11:14:37;17.70;90.70
17370;DHT22;8802;52.402;4.920;2022-11-03T11:17:05;17.70;90.80
17370;DHT22;8802;52.402;4.920;2022-11-03T11:22:32;17.70;90.70
17370;DHT22;8802;52.402;4.920;2022-11-03T11:24:59;17.80;90.50
17370;DHT22;8802;52.402;4.920;2022-11-03T11:28:08;17.80;90.50
17370;DHT22;8802;52.402;4.920;2022-11-03T11:33:48;17.90;90.30
17370;DHT22;8802;52.402;4.920;2022-11-03T11:36:20;17.90;90.40
17370;DHT22;8802;52.402;4.920;2022-11-03T11:39:09;17.90;90.30
17370;DHT22;8802;52.402;4.920;2022-11-03T11:42:08;18.00;90.20
17370;DHT22;8802;52.402;4.920;2022-11-03T11:44:45;18.00;90.00
17370;DHT22;8802;52.402;4.920;2022-11-03T11:47:32;18.10;89.90
17370;DHT22;8802;52.402;4.920;2022-11-03T11:50:11;18.10;89.70
17370;DHT22;8802;52.402;4.920;2022-11-03T11:52:42;18.10;89.90
17370;DHT22;8802;52.402;4.920;2022-11-03T11:55:16;18.10;89.80
17370;DHT22;8802;52.402;4.920;2022-11-03T11:57:44;18.10;89.80
17370;DHT22;8802;52.402;4.920;2022-11-03T12:00:22;18.20;89.90
17370;DHT22;8802;52.402;4.920;2022-11-03T12:02:50;18.20;89.60
17370;DHT22;8802;52.402;4.920;2022-11-03T12:05:22;18.20;89.60
17370;DHT22;8802;52.402;4.920;2022-11-03T12:07:50;18.20;89.30
17370;DHT22;8802;52.402;4.920;2022-11-03T12:10:19;18.20;89.20
17370;DHT22;8802;52.402;4.920;2022-11-03T12:12:47;18.30;89.10
17370;DHT22;8802;52.402;4.920;2022-11-03T12:15:49;18.20;88.90
17370;DHT22;8802;52.402;4.920;2022-11-03T12:18:34;18.20;88.80
17370;DHT22;8802;52.402;4.920;2022-11-03T12:21:01;18.20;88.40
17370;DHT22;8802;52.402;4.920;2022-11-03T12:23:36;18.20;88.90
17370;DHT22;8802;52.402;4.920;2022-11-03T12:26:05;18.20;88.80
17370;DHT22;8802;52.402;4.920;2022-11-03T12:28:33;18.20;88.90
17370;DHT22;8802;52.402;4.920;2022-11-03T12:31:03;18.20;88.50
17370;DHT22;8802;52.402;4.920;2022-11-03T12:33:30;18.20;88.50
17370;DHT22;8802;52.402;4.920;2022-11-03T12:35:57;18.20;89.30
17370;DHT22;8802;52.402;4.920;2022-11-03T12:38:24;18.20;88.50
17370;DHT22;8802;52.402;4.920;2022-11-03T12:40:51;18.20;88.30
17370;DHT22;8802;52.402;4.920;2022-11-03T12:43:19;18.20;88.40
17370;DHT22;8802;52.402;4.920;2022-11-03T12:45:45;18.20;88.20
17370;DHT22;8802;52.402;4.920;2022-11-03T12:48:13;18.20;88.20
17370;DHT22;8802;52.402;4.920;2022-11-03T12:50:40;18.20;88.10
17370;DHT22;8802;52.402;4.920;2022-11-03T12:53:07;18.20;87.90
17370;DHT22;8802;52.402;4.920;2022-11-03T12:55:34;18.20;88.00
17370;DHT22;8802;52.402;4.920;2022-11-03T12:58:01;18.20;88.10
17370;DHT22;8802;52.402;4.920;2022-11-03T13:00:28;18.20;88.10
17370;DHT22;8802;52.402;4.920;2022-11-03T13:02:55;18.20;88.30
17370;DHT22;8802;52.402;4.920;2022-11-03T13:05:23;18.20;88.00
17370;DHT22;8802;52.402;4.920;2022-11-03T13:07:50;18.20;87.80
17370;DHT22;8802;52.402;4.920;2022-11-03T13:10:18;18.20;87.90
17370;DHT22;8802;52.402;4.920;2022-11-03T13:12:45;18.20;87.80
17370;DHT22;8802;52.402;4.920;2022-11-03T13:15:12;18.20;88.50
17370;DHT22;8802;52.402;4.920;2022-11-03T13:17:40;18.20;87.70
17370;DHT22;8802;52.402;4.920;2022-11-03T13:20:08;18.20;87.70
17370;DHT22;8802;52.402;4.920;2022-11-03T13:22:36;18.20;87.80
17370;DHT22;8802;52.402;4.920;2022-11-03T13:25:04;18.20;87.80
17370;DHT22;8802;52.402;4.920;2022-11-03T13:27:31;18.20;88.60
17370;DHT22;8802;52.402;4.920;2022-11-03T13:29:58;18.20;88.00
17370;DHT22;8802;52.402;4.920;2022-11-03T13:32:25;18.30;88.00
17370;DHT22;8802;52.402;4.920;2022-11-03T13:34:52;18.30;87.80
17370;DHT22;8802;52.402;4.920;2022-11-03T13:37:19;18.30;87.60
17370;DHT22;8802;52.402;4.920;2022-11-03T13:39:47;18.30;87.60
17370;DHT22;8802;52.402;4.920;2022-11-03T13:42:14;18.40;87.50
17370;DHT22;8802;52.402;4.920;2022-11-03T13:44:40;18.40;87.40
17370;DHT22;8802;52.402;4.920;2022-11-03T13:47:07;18.40;87.40
17370;DHT22;8802;52.402;4.920;2022-11-03T13:49:34;18.40;87.50
17370;DHT22;8802;52.402;4.920;2022-11-03T13:52:01;18.40;87.50
17370;DHT22;8802;52.402;4.920;2022-11-03T13:54:28;18.40;87.50
17370;DHT22;8802;52.402;4.920;2022-11-03T13:56:56;18.40;87.60
17370;DHT22;8802;52.402;4.920;2022-11-03T13:59:23;18.40;87.50
17370;DHT22;8802;52.402;4.920;2022-11-03T14:01:50;18.40;87.60
17370;DHT22;8802;52.402;4.920;2022-11-03T14:04:17;18.40;87.50
17370;DHT22;8802;52.402;4.920;2022-11-03T14:06:43;18.40;87.50
17370;DHT22;8802;52.402;4.920;2022-11-03T14:09:11;18.40;87.40
17370;DHT22;8802;52.402;4.920;2022-11-03T14:11:38;18.40;87.40
17370;DHT22;8802;52.402;4.920;2022-11-03T14:14:23;18.40;87.60
17370;DHT22;8802;52.402;4.920;2022-11-03T14:16:50;18.40;87.50
17370;DHT22;8802;52.402;4.920;2022-11-03T14:19:17;18.40;87.50
17370;DHT22;8802;52.402;4.920;2022-11-03T14:21:43;18.40;87.50
17370;DHT22;8802;52.402;4.920;2022-11-03T14:24:10;18.40;87.80
17370;DHT22;8802;52.402;4.920;2022-11-03T14:26:37;18.40;87.60
17370;DHT22;8802;52.402;4.920;2022-11-03T14:29:04;18.40;87.50
17370;DHT22;8802;52.402;4.920;2022-11-03T14:31:32;18.40;87.70
17370;DHT22;8802;52.402;4.920;2022-11-03T14:33:59;18.50;87.60
17370;DHT22;8802;52.402;4.920;2022-11-03T14:36:26;18.50;87.60
17370;DHT22;8802;52.402;4.920;2022-11-03T14:38:53;18.40;87.50
17370;DHT22;8802;52.402;4.920;2022-11-03T14:41:20;18.40;87.50
17370;DHT22;8802;52.402;4.920;2022-11-03T14:44:04;18.40;87.50
17370;DHT22;8802;52.402;4.920;2022-11-03T14:46:32;18.40;87.40
17370;DHT22;8802;52.402;4.920;2022-11-03T14:48:59;18.40;87.30
17370;DHT22;8802;52.402;4.920;2022-11-03T14:51:26;18.40;87.50
17370;DHT22;8802;52.402;4.920;2022-11-03T14:53:53;18.40;87.40
17370;DHT22;8802;52.402;4.920;2022-11-03T14:56:21;18.40;87.40
17370;DHT22;8802;52.402;4.920;2022-11-03T14:58:48;18.40;87.30
17370;DHT22;8802;52.402;4.920;2022-11-03T15:01:15;18.40;87.30
17370;DHT22;8802;52.402;4.920;2022-11-03T15:03:44;18.40;87.00
17370;DHT22;8802;52.402;4.920;2022-11-03T15:06:11;18.40;87.00
17370;DHT22;8802;52.402;4.920;2022-11-03T15:08:38;18.40;87.00
17370;DHT22;8802;52.402;4.920;2022-11-03T15:11:05;18.30;86.90
17370;DHT22;8802;52.402;4.920;2022-11-03T15:13:34;18.30;87.00
17370;DHT22;8802;52.402;4.920;2022-11-03T15:16:01;18.30;86.90
17370;DHT22;8802;52.402;4.920;2022-11-03T15:18:28;18.30;86.90
17370;DHT22;8802;52.402;4.920;2022-11-03T15:20:56;18.30;87.00
17370;DHT22;8802;52.402;4.920;2022-11-03T15:23:23;18.30;87.10
17370;DHT22;8802;52.402;4.920;2022-11-03T15:25:50;18.20;87.30
17370;DHT22;8802;52.402;4.920;2022-11-03T15:28:16;18.20;87.30
17370;DHT22;8802;52.402;4.920;2022-11-03T15:30:45;18.20;87.30
17370;DHT22;8802;52.402;4.920;2022-11-03T15:33:12;18.20;87.10
17370;DHT22;8802;52.402;4.920;2022-11-03T15:35:39;18.20;87.00
17370;DHT22;8802;52.402;4.920;2022-11-03T15:38:07;18.10;87.10
17370;DHT22;8802;52.402;4.920;2022-11-03T15:40:34;18.10;87.10
17370;DHT22;8802;52.402;4.920;2022-11-03T15:43:00;18.10;87.20
17370;DHT22;8802;52.402;4.920;2022-11-03T15:45:27;18.10;87.10
17370;DHT22;8802;52.402;4.920;2022-11-03T15:47:55;18.10;87.10
17370;DHT22;8802;52.402;4.920;2022-11-03T15:50:22;18.10;87.10
17370;DHT22;8802;52.402;4.920;2022-11-03T15:52:50;18.10;87.30
17370;DHT22;8802;52.402;4.920;2022-11-03T15:55:19;18.10;87.50
17370;DHT22;8802;52.402;4.920;2022-11-03T15:57:46;18.10;87.40
17370;DHT22;8802;52.402;4.920;2022-11-03T16:00:13;18.00;87.40
17370;DHT22;8802;52.402;4.920;2022-11-03T16:02:40;18.00;87.50
17370;DHT22;8802;52.402;4.920;2022-11-03T16:05:08;18.00;87.60
17370;DHT22;8802;52.402;4.920;2022-11-03T16:07:35;18.00;87.70
17370;DHT22;8802;52.402;4.920;2022-11-03T16:10:02;18.00;87.80